Time;durP1;ratioP1;P1;durP2;ratioP2;P2;SDS_P1;SDS_P2;PMS_P1;PMS_P2;Temp;Humidity;BMP_temperature;BMP_pressure;BME280_temperature;BME280_humidity;BME280_pressure;Samples;Min_cycle;Max_cycle;Signal;HPM_P1;HPM_P2
2023/07/14 00:01:26;;;;;;;;;;;;;;;17.04;65.87;96786.97;5107178;28;19976;-71
2023/07/14 00:03:53;;;;;;;;;;;;;;;17.03;65.94;96780.09;5107173;28;19939;-71
2023/07/14 00:06:19;;;;;;;;;;;;;;;17.00;66.14;96788.50;5106643;28;19958;-71
2023/07/14 00:08:45;;;;;;;;;;;;;;;17.00;66.62;96785.06;5106394;28;19931;-71
2023/07/14 00:11:12;;;;;;;;;;;;;;;16.97;66.71;96780.28;5106853;28;19934;-76
2023/07/14 00:13:38;;;;;;;;;;;;;;;16.95;67.08;96787.69;5106586;28;20110;-73
2023/07/14 00:16:25;;;;;;;;;;;;;;;16.94;67.69;96786.06;5106304;28;19963;-70
2023/07/14 00:18:51;;;;;;;;;;;;;;;16.92;66.91;96791.63;5106124;28;20273;-71
2023/07/14 00:21:18;;;;;;;;;;;;;;;16.90;67.35;96777.81;5106218;28;19943;-71
2023/07/14 00:23:44;;;;;;;;;;;;;;;16.88;66.78;96779.91;5106563;28;20205;-71
2023/07/14 00:26:17;;;;;;;;;;;;;;;16.84;67.36;96776.19;5105992;28;20244;-71
2023/07/14 00:28:43;;;;;;;;;;;;;;;16.79;67.46;96776.88;5106801;28;20227;-72
2023/07/14 00:31:10;;;;;;;;;;;;;;;16.77;67.34;96773.69;5105949;28;19940;-73
2023/07/14 00:33:36;;;;;;;;;;;;;;;16.75;67.54;96775.00;5106117;28;19934;-74
2023/07/14 00:36:02;;;;;;;;;;;;;;;16.72;67.42;96770.19;5106698;28;20003;-74
2023/07/14 00:38:28;;;;;;;;;;;;;;;16.68;67.07;96769.09;5105812;28;19941;-73
2023/07/14 00:40:54;;;;;;;;;;;;;;;16.63;67.10;96773.28;5106290;28;19932;-73
2023/07/14 00:43:21;;;;;;;;;;;;;;;16.61;67.25;96771.94;5105736;28;19993;-73
2023/07/14 00:45:49;;;;;;;;;;;;;;;16.59;67.78;96774.84;5105592;28;19958;-73
2023/07/14 00:48:16;;;;;;;;;;;;;;;16.57;67.71;96773.50;5105351;28;19948;-80
2023/07/14 00:50:44;;;;;;;;;;;;;;;16.55;67.73;96767.63;5088361;28;19944;-76
2023/07/14 00:53:17;;;;;;;;;;;;;;;16.51;67.70;96767.31;5105556;28;19939;-71
2023/07/14 00:55:45;;;;;;;;;;;;;;;16.47;68.04;96766.22;5106201;28;19937;-73
2023/07/14 00:58:16;;;;;;;;;;;;;;;16.43;68.59;96770.41;5105123;28;20115;-72
2023/07/14 01:00:58;;;;;;;;;;;;;;;16.39;68.90;96770.09;5104224;28;19939;-71
2023/07/14 01:03:24;;;;;;;;;;;;;;;16.36;68.55;96764.50;5105982;28;19943;-72
2023/07/14 01:05:52;;;;;;;;;;;;;;;16.32;69.30;96764.19;5105483;28;19953;-72
2023/07/14 01:08:21;;;;;;;;;;;;;;;16.27;68.87;96765.97;5106126;28;19933;-72
2023/07/14 01:10:47;;;;;;;;;;;;;;;16.23;69.25;96765.66;5104898;28;19956;-75
2023/07/14 01:13:13;;;;;;;;;;;;;;;16.20;69.32;96760.88;5104853;28;19938;-76
2023/07/14 01:15:40;;;;;;;;;;;;;;;16.16;68.78;96762.41;5087054;28;19933;-76
2023/07/14 01:18:07;;;;;;;;;;;;;;;16.13;70.01;96763.69;5104501;28;20171;-75
2023/07/14 01:20:35;;;;;;;;;;;;;;;16.12;69.61;96766.59;5105842;28;19955;-76
2023/07/14 01:23:05;;;;;;;;;;;;;;;16.08;70.19;96768.91;5103747;28;19945;-75
2023/07/14 01:25:33;;;;;;;;;;;;;;;16.05;69.43;96752.75;5105389;28;19948;-73
2023/07/14 01:28:03;;;;;;;;;;;;;;;16.00;69.43;96759.56;5104845;28;19938;-72
2023/07/14 01:30:29;;;;;;;;;;;;;;;15.97;70.31;96765.34;5105692;28;19941;-72
2023/07/14 01:32:55;;;;;;;;;;;;;;;15.92;70.31;96754.69;5105031;28;19940;-72
2023/07/14 01:35:26;;;;;;;;;;;;;;;15.89;70.23;96754.38;5105315;28;19938;-72
2023/07/14 01:37:52;;;;;;;;;;;;;;;15.84;70.59;96749.81;5105522;28;19941;-73
2023/07/14 01:40:18;;;;;;;;;;;;;;;15.80;71.01;96754.00;5087383;28;19995;-73
2023/07/14 01:42:55;;;;;;;;;;;;;;;15.78;70.83;96748.94;5104970;28;19969;-73
2023/07/14 01:45:22;;;;;;;;;;;;;;;15.75;71.37;96746.00;5105482;28;20240;-73
2023/07/14 01:47:54;;;;;;;;;;;;;;;15.71;71.46;96750.94;5104572;28;19955;-70
2023/07/14 01:50:23;;;;;;;;;;;;;;;15.66;72.68;96748.22;5105095;28;19948;-70
2023/07/14 01:52:51;;;;;;;;;;;;;;;15.63;72.65;96751.34;5104456;28;19934;-70
2023/07/14 01:55:19;;;;;;;;;;;;;;;15.62;72.18;96736.50;5105015;28;19938;-70
2023/07/14 01:57:46;;;;;;;;;;;;;;;15.57;72.69;96733.81;5104382;28;19974;-70
2023/07/14 02:00:12;;;;;;;;;;;;;;;15.55;73.00;96730.59;5105229;28;20213;-70
2023/07/14 02:02:40;;;;;;;;;;;;;;;15.51;72.92;96729.50;5103245;28;19946;-75
2023/07/14 02:05:15;;;;;;;;;;;;;;;15.49;72.23;96728.94;5103241;28;19947;-71
2023/07/14 02:07:41;;;;;;;;;;;;;;;15.47;71.74;96723.88;5105138;28;19945;-72
2023/07/14 02:10:11;;;;;;;;;;;;;;;15.47;71.72;96729.16;5104247;28;19935;-72
2023/07/14 02:12:42;;;;;;;;;;;;;;;15.46;72.76;96729.44;5104782;28;19937;-70
2023/07/14 02:15:12;;;;;;;;;;;;;;;15.43;72.66;96726.22;5105085;28;19940;-71
2023/07/14 02:17:39;;;;;;;;;;;;;;;15.39;73.12;96730.38;5104365;28;19973;-71
2023/07/14 02:20:13;;;;;;;;;;;;;;;15.38;73.19;96731.41;5104206;28;19941;-77
2023/07/14 02:22:39;;;;;;;;;;;;;;;15.36;73.95;96740.63;5104724;28;20226;-74
2023/07/14 02:25:09;;;;;;;;;;;;;;;15.32;73.77;96735.03;5104967;28;19951;-70
2023/07/14 02:27:35;;;;;;;;;;;;;;;15.29;73.49;96735.50;5103473;28;19942;-71
2023/07/14 02:30:09;;;;;;;;;;;;;;;15.26;74.12;96732.53;5105160;28;19978;-69
2023/07/14 02:32:38;;;;;;;;;;;;;;;15.23;75.39;96739.13;5109188;28;19934;-71
2023/07/14 02:35:33;;;;;;;;;;;;;;;15.18;74.86;96726.63;5108287;28;19938;-71
2023/07/14 02:38:03;;;;;;;;;;;;;;;15.15;74.84;96734.22;5102775;28;20111;-70
2023/07/14 02:40:29;;;;;;;;;;;;;;;15.12;74.90;96724.94;5108134;28;19939;-72
2023/07/14 02:42:55;;;;;;;;;;;;;;;15.09;75.14;96724.63;5106875;28;19946;-72
2023/07/14 02:45:22;;;;;;;;;;;;;;;15.05;75.16;96719.00;5108021;28;19964;-72
2023/07/14 02:47:50;;;;;;;;;;;;;;;15.04;75.60;96716.63;5108199;28;19937;-72
2023/07/14 02:50:16;;;;;;;;;;;;;;;15.00;75.77;96709.16;5107576;28;19959;-72
2023/07/14 02:52:41;;;;;;;;;;;;;;;14.97;75.70;96707.00;5108148;28;20002;-72
2023/07/14 02:55:08;;;;;;;;;;;;;;;14.95;76.04;96714.38;5107851;28;19938;-73
2023/07/14 02:57:34;;;;;;;;;;;;;;;14.93;75.94;96707.72;5107700;28;20267;-76
2023/07/14 03:00:00;;;;;;;;;;;;;;;14.92;75.87;96711.41;5107445;28;19946;-70
2023/07/14 03:02:26;;;;;;;;;;;;;;;14.91;75.79;96712.41;5106634;28;19939;-73
2023/07/14 03:04:52;;;;;;;;;;;;;;;14.89;76.91;96712.69;5107043;28;19952;-72
2023/07/14 03:07:17;;;;;;;;;;;;;;;14.86;76.96;96713.16;5107657;28;19931;-72
2023/07/14 03:09:43;;;;;;;;;;;;;;;14.85;76.40;96708.13;5108094;28;19930;-72
2023/07/14 03:12:09;;;;;;;;;;;;;;;14.83;76.42;96703.06;5107001;28;19940;-72
2023/07/14 03:14:35;;;;;;;;;;;;;;;14.82;77.09;96710.19;5108005;28;19931;-73
2023/07/14 03:17:01;;;;;;;;;;;;;;;14.80;77.29;96707.00;5107251;28;19967;-71
2023/07/14 03:19:27;;;;;;;;;;;;;;;14.78;76.25;96697.69;5106900;28;20041;-73
2023/07/14 03:21:52;;;;;;;;;;;;;;;14.77;76.21;96698.75;5107335;28;19945;-73
2023/07/14 03:24:18;;;;;;;;;;;;;;;14.75;77.49;96698.97;5107851;28;19946;-73
2023/07/14 03:26:44;;;;;;;;;;;;;;;14.72;78.15;96702.09;5107175;28;20251;-74
2023/07/14 03:29:10;;;;;;;;;;;;;;;14.71;77.84;96689.13;5107709;28;19938;-73
2023/07/14 03:31:36;;;;;;;;;;;;;;;14.68;78.43;96690.41;5107679;28;19981;-73
2023/07/14 03:34:01;;;;;;;;;;;;;;;14.67;79.04;96688.00;5107093;28;19942;-72
2023/07/14 03:36:27;;;;;;;;;;;;;;;14.65;78.57;96682.16;5107077;28;19939;-73
2023/07/14 03:39:12;;;;;;;;;;;;;;;14.63;78.26;96685.03;5107585;28;19933;-70
2023/07/14 03:41:38;;;;;;;;;;;;;;;14.60;78.98;96678.41;5089159;28;19962;-70
2023/07/14 03:44:03;;;;;;;;;;;;;;;14.59;78.29;96668.06;5107466;28;19940;-70
2023/07/14 03:46:29;;;;;;;;;;;;;;;14.58;79.07;96674.41;5107339;28;19963;-70
2023/07/14 03:48:55;;;;;;;;;;;;;;;14.56;78.87;96671.19;5105633;28;19944;-70
2023/07/14 03:51:21;;;;;;;;;;;;;;;14.55;79.35;96670.41;5106785;28;19945;-70
2023/07/14 03:53:47;;;;;;;;;;;;;;;14.53;79.16;96671.63;5107599;28;19951;-77
2023/07/14 03:56:13;;;;;;;;;;;;;;;14.51;79.57;96666.59;5106641;28;19956;-72
2023/07/14 03:58:40;;;;;;;;;;;;;;;14.51;80.24;96679.78;5106714;28;19941;-72
2023/07/14 04:01:06;;;;;;;;;;;;;;;14.53;79.90;96671.63;5107392;28;19946;-73
2023/07/14 04:03:32;;;;;;;;;;;;;;;14.52;80.63;96678.75;5106796;28;19937;-72
2023/07/14 04:05:58;;;;;;;;;;;;;;;14.56;79.23;96671.19;5106449;28;19964;-72
2023/07/14 04:08:24;;;;;;;;;;;;;;;14.58;80.02;96677.81;5107250;28;19939;-73
2023/07/14 04:10:50;;;;;;;;;;;;;;;14.61;80.07;96680.00;5106937;28;20214;-73
2023/07/14 04:13:16;;;;;;;;;;;;;;;14.64;80.73;96683.22;5105285;28;19974;-72
2023/07/14 04:15:41;;;;;;;;;;;;;;;14.72;81.28;96682.81;5107250;28;19938;-72
2023/07/14 04:18:07;;;;;;;;;;;;;;;14.91;81.09;96676.28;5106116;28;19970;-73
2023/07/14 04:20:33;;;;;;;;;;;;;;;15.10;80.76;96671.56;5106251;28;20006;-72
2023/07/14 04:22:59;;;;;;;;;;;;;;;15.27;79.06;96660.19;5106688;28;20211;-79
2023/07/14 04:25:25;;;;;;;;;;;;;;;15.32;78.57;96650.47;5106581;28;19951;-80
2023/07/14 04:27:52;;;;;;;;;;;;;;;15.33;78.54;96643.34;5105924;28;19931;-77
2023/07/14 04:30:18;;;;;;;;;;;;;;;15.30;79.30;96664.97;5106403;28;19940;-73
2023/07/14 04:32:45;;;;;;;;;;;;;;;15.26;79.72;96656.72;5104797;28;19960;-71
2023/07/14 04:35:11;;;;;;;;;;;;;;;15.22;79.16;96637.94;5105194;28;19940;-71
2023/07/14 04:37:37;;;;;;;;;;;;;;;15.22;79.35;96651.13;5106131;28;19968;-71
2023/07/14 04:40:06;;;;;;;;;;;;;;;15.22;79.81;96653.78;5105878;28;19937;-71
2023/07/14 04:42:32;;;;;;;;;;;;;;;15.24;80.17;96653.50;5104697;28;20131;-71
2023/07/14 04:44:58;;;;;;;;;;;;;;;15.24;80.69;96656.16;5105697;28;19950;-71
2023/07/14 04:47:24;;;;;;;;;;;;;;;15.26;81.52;96661.22;5105739;28;19931;-72
2023/07/14 04:49:50;;;;;;;;;;;;;;;15.26;79.80;96640.88;5106475;28;20086;-77
2023/07/14 04:52:16;;;;;;;;;;;;;;;15.28;78.46;96635.34;5086848;28;19942;-71
2023/07/14 04:54:42;;;;;;;;;;;;;;;15.28;78.05;96637.97;5106289;28;20211;-71
2023/07/14 04:57:08;;;;;;;;;;;;;;;15.31;79.79;96642.81;5105573;28;19997;-71
2023/07/14 04:59:35;;;;;;;;;;;;;;;15.34;79.54;96647.59;5105531;28;19930;-70
2023/07/14 05:02:02;;;;;;;;;;;;;;;15.38;79.55;96646.06;5105448;28;19956;-70
2023/07/14 05:04:29;;;;;;;;;;;;;;;15.43;80.32;96656.69;5104841;28;19935;-71
2023/07/14 05:06:55;;;;;;;;;;;;;;;15.47;79.04;96641.94;5105294;28;20154;-73
2023/07/14 05:09:21;;;;;;;;;;;;;;;15.51;78.50;96635.13;5105132;28;19940;-72
2023/07/14 05:11:47;;;;;;;;;;;;;;;15.57;79.34;96652.66;5105279;28;19958;-74
2023/07/14 05:14:13;;;;;;;;;;;;;;;15.61;78.70;96643.19;5105220;28;20127;-72
2023/07/14 05:16:38;;;;;;;;;;;;;;;15.67;79.50;96641.41;5104155;28;19939;-73
2023/07/14 05:19:04;;;;;;;;;;;;;;;15.73;79.40;96637.84;5105000;28;20019;-73
2023/07/14 05:21:30;;;;;;;;;;;;;;;15.79;79.81;96638.66;5105122;28;19989;-73
2023/07/14 05:23:56;;;;;;;;;;;;;;;15.83;78.14;96632.66;5105075;28;19943;-73
2023/07/14 05:26:22;;;;;;;;;;;;;;;15.88;77.94;96636.41;5105509;28;20031;-74
2023/07/14 05:28:48;;;;;;;;;;;;;;;15.93;78.42;96631.19;5105027;28;19944;-78
2023/07/14 05:31:14;;;;;;;;;;;;;;;15.97;78.78;96627.78;5105810;28;19948;-77
2023/07/14 05:33:40;;;;;;;;;;;;;;;16.01;78.04;96631.53;5104915;28;19946;-77
2023/07/14 05:36:06;;;;;;;;;;;;;;;16.06;78.16;96646.66;5104812;28;20091;-77
2023/07/14 05:38:32;;;;;;;;;;;;;;;16.09;78.69;96635.59;5105388;28;19932;-77
2023/07/14 05:40:58;;;;;;;;;;;;;;;16.12;78.41;96639.59;5104869;28;19971;-77
2023/07/14 05:43:24;;;;;;;;;;;;;;;16.13;81.44;96657.88;5104794;28;19934;-73
2023/07/14 05:45:50;;;;;;;;;;;;;;;16.12;79.70;96643.03;5105391;28;19961;-70
2023/07/14 05:48:17;;;;;;;;;;;;;;;16.09;80.72;96646.19;5105197;28;19937;-70
2023/07/14 05:50:44;;;;;;;;;;;;;;;16.10;80.35;96649.63;5104614;28;20219;-71
2023/07/14 05:53:10;;;;;;;;;;;;;;;16.10;80.31;96647.75;5105122;28;19946;-70
2023/07/14 05:55:35;;;;;;;;;;;;;;;16.15;81.13;96654.97;5104748;28;19934;-70
2023/07/14 05:58:01;;;;;;;;;;;;;;;16.18;79.15;96634.09;5103466;28;19948;-70
2023/07/14 06:00:29;;;;;;;;;;;;;;;16.18;80.04;96635.94;5105276;28;19964;-70
2023/07/14 06:02:54;;;;;;;;;;;;;;;16.14;79.97;96638.28;5104747;28;19935;-73
2023/07/14 06:05:20;;;;;;;;;;;;;;;16.33;80.39;96640.59;5087032;28;20005;-73
2023/07/14 06:07:47;;;;;;;;;;;;;;;16.74;79.82;96638.34;5104357;28;19965;-73
2023/07/14 06:10:13;;;;;;;;;;;;;;;17.26;79.48;96632.41;5105194;28;19933;-73
2023/07/14 06:12:39;;;;;;;;;;;;;;;17.77;77.12;96618.59;5104669;28;19934;-72
2023/07/14 06:15:06;;;;;;;;;;;;;;;18.22;75.26;96593.25;5104836;28;19934;-73
2023/07/14 06:17:31;;;;;;;;;;;;;;;18.63;74.52;96580.81;5104118;28;19959;-73
2023/07/14 06:19:57;;;;;;;;;;;;;;;19.02;71.83;96564.34;5104543;28;20092;-77
2023/07/14 06:22:23;;;;;;;;;;;;;;;19.37;70.66;96557.34;5105062;28;19991;-70
2023/07/14 06:24:49;;;;;;;;;;;;;;;19.65;69.57;96550.59;5105009;28;20213;-73
2023/07/14 06:27:15;;;;;;;;;;;;;;;19.94;68.70;96535.81;5104148;28;19993;-73
2023/07/14 06:29:41;;;;;;;;;;;;;;;20.19;67.38;96518.88;5104220;28;19941;-73
2023/07/14 06:32:07;;;;;;;;;;;;;;;20.41;64.98;96511.25;5104489;28;19946;-74
2023/07/14 06:34:33;;;;;;;;;;;;;;;20.56;65.18;96515.66;5104651;28;20219;-73
2023/07/14 06:36:59;;;;;;;;;;;;;;;20.54;64.33;96507.16;5104106;28;19976;-73
2023/07/14 06:39:25;;;;;;;;;;;;;;;20.62;63.92;96508.44;5104118;28;20241;-72
2023/07/14 06:41:52;;;;;;;;;;;;;;;20.79;64.21;96510.66;5103297;28;19936;-75
2023/07/14 06:44:17;;;;;;;;;;;;;;;21.00;63.02;96498.75;5102852;28;19950;-75
2023/07/14 06:46:43;;;;;;;;;;;;;;;21.07;61.96;96515.19;5102880;28;19953;-75
2023/07/14 06:49:10;;;;;;;;;;;;;;;20.86;62.78;96527.13;5103643;28;19988;-75
2023/07/14 06:51:36;;;;;;;;;;;;;;;20.81;62.38;96525.31;5103985;28;19959;-75
2023/07/14 06:54:01;;;;;;;;;;;;;;;20.87;61.96;96528.72;5086771;28;20208;-75
2023/07/14 06:56:27;;;;;;;;;;;;;;;21.10;61.98;96524.47;5102749;28;20140;-73
2023/07/14 06:58:53;;;;;;;;;;;;;;;21.32;59.81;96510.66;5103938;28;19945;-72
2023/07/14 07:01:20;;;;;;;;;;;;;;;21.57;58.23;96506.09;5103072;28;20000;-75
2023/07/14 07:03:45;;;;;;;;;;;;;;;21.65;57.83;96508.94;5104622;28;19941;-74
2023/07/14 07:06:14;;;;;;;;;;;;;;;21.70;58.06;96510.72;5104305;28;19953;-74
2023/07/14 07:08:40;;;;;;;;;;;;;;;21.78;58.21;96514.63;5103767;28;19941;-75
2023/07/14 07:11:05;;;;;;;;;;;;;;;21.92;58.66;96514.69;5104564;28;19988;-74
2023/07/14 07:13:31;;;;;;;;;;;;;;;21.99;55.97;96496.44;5102702;28;19977;-74
2023/07/14 07:15:57;;;;;;;;;;;;;;;22.02;56.38;96503.88;5104228;28;19937;-72
2023/07/14 07:18:25;;;;;;;;;;;;;;;22.14;55.42;96498.09;5107360;28;19975;-74
2023/07/14 07:20:52;;;;;;;;;;;;;;;22.32;54.97;96486.59;5106342;28;20240;-74
2023/07/14 07:23:18;;;;;;;;;;;;;;;22.45;55.17;96487.75;5089289;28;19945;-75
2023/07/14 07:25:48;;;;;;;;;;;;;;;22.57;55.36;96495.28;5106190;28;19956;-75
2023/07/14 07:28:14;;;;;;;;;;;;;;;22.73;55.01;96493.94;5108180;28;20107;-74
2023/07/14 07:30:39;;;;;;;;;;;;;;;22.79;52.70;96479.38;5107263;28;19927;-74
2023/07/14 07:33:05;;;;;;;;;;;;;;;22.94;54.24;96498.91;5108032;28;19934;-71
2023/07/14 07:35:31;;;;;;;;;;;;;;;22.96;52.75;96494.06;5107193;28;19928;-78
2023/07/14 07:37:59;;;;;;;;;;;;;;;23.00;52.59;96498.50;5106729;28;20016;-73
2023/07/14 07:40:25;;;;;;;;;;;;;;;23.02;48.81;96477.66;5107391;28;19931;-74
2023/07/14 07:42:50;;;;;;;;;;;;;;;23.05;49.61;96477.03;5106943;28;19992;-73
2023/07/14 07:45:16;;;;;;;;;;;;;;;23.12;50.67;96476.66;5106908;28;19986;-74
2023/07/14 07:47:42;;;;;;;;;;;;;;;23.18;51.99;96486.19;5107505;28;19940;-73
2023/07/14 07:50:08;;;;;;;;;;;;;;;23.29;51.16;96486.75;5106927;28;19983;-74
2023/07/14 07:52:34;;;;;;;;;;;;;;;23.42;48.72;96477.91;5106878;28;19933;-71
2023/07/14 07:55:00;;;;;;;;;;;;;;;23.44;49.54;96482.97;5107359;28;19974;-73
2023/07/14 07:57:26;;;;;;;;;;;;;;;23.55;50.04;96478.97;5107500;28;19989;-73
2023/07/14 07:59:52;;;;;;;;;;;;;;;23.68;48.70;96469.34;5106347;28;19994;-74
2023/07/14 08:02:17;;;;;;;;;;;;;;;23.75;49.24;96475.09;5107502;28;19970;-74
2023/07/14 08:04:43;;;;;;;;;;;;;;;23.82;48.37;96467.44;5106580;28;19942;-74
2023/07/14 08:07:10;;;;;;;;;;;;;;;23.88;49.38;96479.63;5106214;28;20226;-75
2023/07/14 08:09:36;;;;;;;;;;;;;;;23.81;45.42;96457.03;5106794;28;19940;-74
2023/07/14 08:12:02;;;;;;;;;;;;;;;23.82;47.26;96466.66;5107278;28;19942;-78
2023/07/14 08:14:28;;;;;;;;;;;;;;;23.84;47.76;96467.94;5088472;28;20110;-71
2023/07/14 08:16:54;;;;;;;;;;;;;;;23.96;48.92;96472.75;5106136;28;20003;-72
2023/07/14 08:19:20;;;;;;;;;;;;;;;24.07;43.94;96457.25;5106947;28;19945;-72
2023/07/14 08:21:46;;;;;;;;;;;;;;;24.15;46.83;96469.91;5105939;28;20210;-72
2023/07/14 08:24:12;;;;;;;;;;;;;;;24.28;46.19;96463.69;5106767;28;20212;-72
2023/07/14 08:26:39;;;;;;;;;;;;;;;24.30;43.29;96461.50;5106050;28;20267;-72
2023/07/14 08:29:05;;;;;;;;;;;;;;;24.29;44.60;96464.47;5106743;28;19936;-74
2023/07/14 08:31:31;;;;;;;;;;;;;;;24.36;46.74;96458.66;5104956;28;19940;-78
2023/07/14 08:33:57;;;;;;;;;;;;;;;24.41;45.25;96453.97;5106081;28;20129;-79
2023/07/14 08:36:23;;;;;;;;;;;;;;;24.43;45.73;96456.38;5088903;28;19939;-79
2023/07/14 08:38:49;;;;;;;;;;;;;;;24.43;45.37;96451.00;5104832;28;20297;-79
2023/07/14 08:41:29;;;;;;;;;;;;;;;24.50;45.67;96454.06;5104837;28;19940;-78
2023/07/14 08:44:01;;;;;;;;;;;;;;;24.51;44.95;96444.94;5105484;28;19936;-79
2023/07/14 08:46:36;;;;;;;;;;;;;;;24.50;45.67;96454.84;5105675;28;20114;-75
2023/07/14 08:49:04;;;;;;;;;;;;;;;24.44;43.65;96455.25;5104526;28;19938;-75
2023/07/14 08:51:32;;;;;;;;;;;;;;;24.34;44.38;96447.47;5106236;28;19932;-72
2023/07/14 08:54:01;;;;;;;;;;;;;;;24.25;45.08;96452.78;5104605;28;19942;-71
2023/07/14 08:56:29;;;;;;;;;;;;;;;24.17;44.06;96446.28;5105522;28;19954;-72
2023/07/14 08:58:55;;;;;;;;;;;;;;;24.23;46.23;96463.00;5105201;28;20120;-72
2023/07/14 09:01:27;;;;;;;;;;;;;;;24.29;44.13;96451.84;5105539;28;19945;-72
2023/07/14 09:03:58;;;;;;;;;;;;;;;24.33;44.57;96454.72;5106300;28;19951;-72
2023/07/14 09:06:32;;;;;;;;;;;;;;;24.31;45.47;96457.69;5105646;28;19957;-72
2023/07/14 09:08:58;;;;;;;;;;;;;;;24.45;46.39;96452.28;5088269;28;20219;-73
2023/07/14 09:11:26;;;;;;;;;;;;;;;24.45;43.58;96448.81;5105395;28;19941;-73
2023/07/14 09:13:53;;;;;;;;;;;;;;;24.55;45.01;96458.50;5105841;28;19939;-73
2023/07/14 09:16:20;;;;;;;;;;;;;;;24.62;43.25;96442.78;5105268;28;19940;-73
2023/07/14 09:18:46;;;;;;;;;;;;;;;24.64;41.86;96438.69;5105074;28;19961;-73
2023/07/14 09:21:16;;;;;;;;;;;;;;;24.69;43.95;96451.97;5104091;28;19950;-73
2023/07/14 09:23:58;;;;;;;;;;;;;;;24.62;42.55;96446.22;5103597;28;20260;-72
2023/07/14 09:26:30;;;;;;;;;;;;;;;24.62;44.24;96454.28;5103920;28;19957;-72
2023/07/14 09:28:57;;;;;;;;;;;;;;;24.65;45.25;96445.63;5104684;28;20218;-74
2023/07/14 09:31:37;;;;;;;;;;;;;;;24.72;45.59;96445.19;5105083;28;20123;-74
2023/07/14 09:34:10;;;;;;;;;;;;;;;24.81;45.43;96439.84;5105455;28;20204;-74
2023/07/14 09:36:38;;;;;;;;;;;;;;;24.91;45.86;96436.91;5104748;28;20210;-74
2023/07/14 09:39:07;;;;;;;;;;;;;;;24.98;45.39;96431.84;5103244;28;19937;-74
2023/07/14 09:41:33;;;;;;;;;;;;;;;24.94;43.12;96422.84;5104366;28;19945;-74
2023/07/14 09:43:59;;;;;;;;;;;;;;;24.90;44.08;96432.63;5105326;28;19931;-76
2023/07/14 09:46:29;;;;;;;;;;;;;;;24.84;43.94;96436.53;5103601;28;19952;-75
2023/07/14 09:49:04;;;;;;;;;;;;;;;24.82;43.47;96436.88;5087046;28;19937;-75
2023/07/14 09:51:30;;;;;;;;;;;;;;;24.75;42.91;96430.34;5104359;28;20107;-75
2023/07/14 09:53:57;;;;;;;;;;;;;;;24.67;43.26;96430.03;5103391;28;19939;-76
2023/07/14 09:56:25;;;;;;;;;;;;;;;24.71;43.95;96433.69;5105050;28;19952;-75
2023/07/14 09:58:58;;;;;;;;;;;;;;;24.73;43.30;96424.50;5070637;28;19950;-75
2023/07/14 10:01:24;;;;;;;;;;;;;;;24.78;43.39;96424.38;5104996;28;19933;-73
2023/07/14 10:03:54;;;;;;;;;;;;;;;24.77;44.30;96423.59;5103466;28;19972;-74
2023/07/14 10:06:22;;;;;;;;;;;;;;;24.74;43.49;96420.72;5105205;28;19962;-74
2023/07/14 10:08:54;;;;;;;;;;;;;;;24.74;43.76;96421.53;5105217;28;19943;-74
2023/07/14 10:11:23;;;;;;;;;;;;;;;24.71;42.51;96416.78;5103264;28;19960;-73
2023/07/14 10:13:59;;;;;;;;;;;;;;;24.69;42.38;96410.94;5103111;28;20130;-74
2023/07/14 10:16:26;;;;;;;;;;;;;;;24.66;41.62;96412.34;5104379;28;20126;-74
2023/07/14 10:18:57;;;;;;;;;;;;;;;24.70;43.26;96409.84;5104227;28;19987;-75
2023/07/14 10:21:31;;;;;;;;;;;;;;;24.87;43.56;96411.78;5103952;28;20212;-73
2023/07/14 10:23:57;;;;;;;;;;;;;;;25.09;43.35;96409.03;5103962;28;20099;-74
2023/07/14 10:26:26;;;;;;;;;;;;;;;25.24;38.85;96398.94;5104219;28;20163;-73
2023/07/14 10:28:52;;;;;;;;;;;;;;;25.35;42.05;96405.63;5104171;28;19942;-73
2023/07/14 10:31:22;;;;;;;;;;;;;;;25.42;42.54;96407.81;5104443;28;19961;-73
2023/07/14 10:34:07;;;;;;;;;;;;;;;25.51;42.75;96397.88;5104972;28;19942;-74
2023/07/14 10:36:35;;;;;;;;;;;;;;;25.51;40.91;96390.63;5104975;28;20119;-73
2023/07/14 10:39:27;;;;;;;;;;;;;;;25.51;42.98;96395.19;5104933;28;19932;-73
2023/07/14 10:41:53;;;;;;;;;;;;;;;25.48;41.49;96391.25;5101091;28;19948;-79
2023/07/14 10:44:26;;;;;;;;;;;;;;;25.39;39.67;96395.81;5086105;28;19939;-79
2023/07/14 10:46:55;;;;;;;;;;;;;;;25.23;42.04;96400.84;5085964;28;19956;-78
2023/07/14 10:49:27;;;;;;;;;;;;;;;25.10;41.56;96394.47;5103480;28;19935;-78
2023/07/14 10:52:03;;;;;;;;;;;;;;;25.03;41.95;96396.84;5105349;28;19940;-79
2023/07/14 10:54:50;;;;;;;;;;;;;;;24.84;42.17;96393.63;5107498;28;20101;-78
2023/07/14 10:57:33;;;;;;;;;;;;;;;24.78;43.14;96402.91;5106983;28;19954;-73
2023/07/14 11:00:04;;;;;;;;;;;;;;;24.83;42.68;96400.88;5106883;28;19945;-74
2023/07/14 11:02:37;;;;;;;;;;;;;;;24.95;43.20;96396.81;5107556;28;19947;-74
2023/07/14 11:05:08;;;;;;;;;;;;;;;25.04;43.24;96386.91;5108370;28;20070;-74
2023/07/14 11:07:34;;;;;;;;;;;;;;;25.09;42.69;96384.06;5107480;28;19956;-74
2023/07/14 11:10:01;;;;;;;;;;;;;;;25.14;40.93;96375.09;5107702;28;19953;-75
2023/07/14 11:12:34;;;;;;;;;;;;;;;25.20;40.77;96363.06;5107690;28;19936;-75
2023/07/14 11:15:12;;;;;;;;;;;;;;;25.29;42.04;96364.69;5108214;28;19940;-74
2023/07/14 11:17:42;;;;;;;;;;;;;;;25.40;39.65;96348.28;5107882;28;19963;-72
2023/07/14 11:20:27;;;;;;;;;;;;;;;25.57;41.39;96359.00;5107139;28;19955;-72
2023/07/14 11:23:12;;;;;;;;;;;;;;;25.96;42.38;96364.56;5107973;28;19938;-72
2023/07/14 11:25:44;;;;;;;;;;;;;;;26.24;39.98;96362.25;5108209;28;20215;-72
2023/07/14 11:28:19;;;;;;;;;;;;;;;26.22;40.76;96361.78;5107919;28;19948;-71
2023/07/14 11:30:46;;;;;;;;;;;;;;;26.11;39.87;96354.06;5108130;28;20212;-71
2023/07/14 11:33:17;;;;;;;;;;;;;;;26.06;40.15;96356.94;5107307;28;19933;-72
2023/07/14 11:35:52;;;;;;;;;;;;;;;26.17;39.93;96356.59;5108086;28;19940;-73
2023/07/14 11:38:37;;;;;;;;;;;;;;;26.38;40.44;96357.47;5107111;28;19938;-73
2023/07/14 11:41:03;;;;;;;;;;;;;;;26.65;40.93;96347.44;5107133;28;19940;-73
2023/07/14 11:43:30;;;;;;;;;;;;;;;26.92;41.40;96341.56;5107924;28;19930;-73
2023/07/14 11:46:06;;;;;;;;;;;;;;;27.10;39.82;96342.22;5107025;28;19934;-73
2023/07/14 11:48:39;;;;;;;;;;;;;;;27.05;39.15;96328.97;5107034;28;19945;-73
2023/07/14 11:51:10;;;;;;;;;;;;;;;26.92;38.67;96321.94;5107734;28;19946;-77
2023/07/14 11:53:38;;;;;;;;;;;;;;;26.89;39.92;96322.59;5089696;28;19944;-75
2023/07/14 11:56:24;;;;;;;;;;;;;;;26.84;39.11;96323.56;5088831;28;19954;-75
2023/07/14 11:58:51;;;;;;;;;;;;;;;26.70;39.22;96323.81;5106259;28;20260;-76
2023/07/14 12:01:29;;;;;;;;;;;;;;;26.64;38.08;96322.41;5089279;28;19960;-76
2023/07/14 12:04:13;;;;;;;;;;;;;;;26.52;40.99;96325.78;5089424;28;19950;-76
2023/07/14 12:06:47;;;;;;;;;;;;;;;26.50;39.48;96322.63;5105859;28;19955;-75
2023/07/14 12:09:18;;;;;;;;;;;;;;;26.51;39.69;96329.56;5107158;28;19936;-74
2023/07/14 12:11:49;;;;;;;;;;;;;;;26.58;38.18;96312.16;5088457;28;19935;-72
2023/07/14 12:14:24;;;;;;;;;;;;;;;26.74;39.67;96323.94;5106802;28;19943;-72
2023/07/14 12:16:50;;;;;;;;;;;;;;;26.98;37.15;96315.22;5106706;28;20244;-72
2023/07/14 12:19:26;;;;;;;;;;;;;;;26.92;36.66;96314.66;5105997;28;20017;-72
2023/07/14 12:22:03;;;;;;;;;;;;;;;26.73;35.33;96303.53;5106906;28;19936;-73
2023/07/14 12:24:40;;;;;;;;;;;;;;;26.84;37.81;96307.44;5106288;28;19938;-72
2023/07/14 12:27:21;;;;;;;;;;;;;;;27.10;37.60;96307.25;5106732;28;20128;-72
2023/07/14 12:29:51;;;;;;;;;;;;;;;27.35;38.29;96310.09;5105134;28;19933;-72
2023/07/14 12:32:18;;;;;;;;;;;;;;;27.54;36.69;96305.00;5105835;28;20105;-75
2023/07/14 12:34:44;;;;;;;;;;;;;;;27.60;36.10;96307.50;5105761;28;19939;-76
2023/07/14 12:37:14;;;;;;;;;;;;;;;27.80;37.67;96295.88;5088837;28;19943;-76
2023/07/14 12:39:47;;;;;;;;;;;;;;;27.99;37.08;96302.69;5104766;28;19943;-76
2023/07/14 12:42:14;;;;;;;;;;;;;;;28.12;37.27;96288.91;5104809;28;19937;-76
2023/07/14 12:44:40;;;;;;;;;;;;;;;28.37;36.55;96286.22;5104765;28;20139;-76
2023/07/14 12:47:12;;;;;;;;;;;;;;;28.45;32.87;96276.44;5104912;28;19991;-72
2023/07/14 12:49:45;;;;;;;;;;;;;;;28.38;33.66;96284.31;5106693;28;19935;-72
2023/07/14 12:52:13;;;;;;;;;;;;;;;28.36;35.01;96287.34;5106227;28;19933;-72
2023/07/14 12:54:44;;;;;;;;;;;;;;;28.45;36.47;96285.31;5104638;28;19963;-72